Time;durP1;ratioP1;P1;durP2;ratioP2;P2;SDS_P1;SDS_P2;PMS_P1;PMS_P2;Temp;Humidity;BMP_temperature;BMP_pressure;BME280_temperature;BME280_humidity;BME280_pressure;Samples;Min_cycle;Max_cycle;Signal;HPM_P1;HPM_P2
2021/12/22 00:01:49;;;;;;;27.67;6.93;;;-2.10;99.90;;;;;;5085499;28;20185;-68
2021/12/22 00:04:14;;;;;;;18.43;6.70;;;-2.10;99.90;;;;;;5084395;28;20213;-68
2021/12/22 00:06:40;;;;;;;22.17;6.40;;;-2.20;99.90;;;;;;5086288;28;20191;-69
2021/12/22 00:09:08;;;;;;;34.47;6.80;;;-2.20;99.90;;;;;;5085874;28;20185;-68
2021/12/22 00:11:33;;;;;;;42.73;8.17;;;-2.20;99.90;;;;;;5084880;28;20619;-69
2021/12/22 00:13:59;;;;;;;40.10;8.20;;;-2.20;99.90;;;;;;5084669;28;20213;-71
2021/12/22 00:16:25;;;;;;;31.83;8.20;;;-2.30;99.90;;;;;;5084401;28;20234;-69
2021/12/22 00:18:50;;;;;;;41.30;7.47;;;-2.20;99.90;;;;;;5086204;28;20200;-69
2021/12/22 00:21:16;;;;;;;29.93;7.37;;;-2.20;99.90;;;;;;5084950;28;20185;-69
2021/12/22 00:23:43;;;;;;;24.03;7.73;;;-2.20;99.90;;;;;;5085544;28;20270;-70
2021/12/22 00:26:08;;;;;;;23.63;6.80;;;-2.20;99.90;;;;;;5085473;28;20678;-69
2021/12/22 00:28:34;;;;;;;28.93;7.90;;;-2.20;99.90;;;;;;5085665;28;20185;-69
2021/12/22 00:31:00;;;;;;;24.07;7.33;;;-2.20;99.90;;;;;;5085353;28;20561;-69
2021/12/22 00:33:28;;;;;;;28.77;8.07;;;-2.20;99.90;;;;;;5085153;28;20197;-69
2021/12/22 00:35:54;;;;;;;19.20;7.43;;;-2.20;99.90;;;;;;5085597;28;20177;-71
2021/12/22 00:38:21;;;;;;;21.83;7.47;;;-2.20;99.90;;;;;;5086107;28;20200;-70
2021/12/22 00:40:48;;;;;;;17.93;7.10;;;-2.10;99.90;;;;;;5085212;28;20191;-68
2021/12/22 00:43:15;;;;;;;22.57;8.00;;;-2.20;99.90;;;;;;5084647;28;20209;-73
2021/12/22 00:45:42;;;;;;;16.20;8.00;;;-2.20;99.90;;;;;;5084030;28;20659;-69
2021/12/22 00:48:09;;;;;;;35.73;8.37;;;-2.10;99.90;;;;;;5085351;28;20223;-69
2021/12/22 00:50:37;;;;;;;24.60;8.20;;;-2.10;99.90;;;;;;5084957;28;20180;-72
2021/12/22 00:53:04;;;;;;;39.30;8.83;;;-2.10;99.90;;;;;;5084541;28;20231;-71
2021/12/22 00:55:30;;;;;;;26.80;7.87;;;-2.20;99.90;;;;;;5085562;28;20181;-71
2021/12/22 00:57:56;;;;;;;27.50;9.03;;;-2.20;99.90;;;;;;5084991;28;20314;-74
2021/12/22 01:00:24;;;;;;;28.17;10.13;;;-2.20;99.90;;;;;;5084919;28;20247;-68
2021/12/22 01:02:50;;;;;;;32.17;9.77;;;-2.20;99.90;;;;;;5084004;28;20663;-70
2021/12/22 01:05:17;;;;;;;24.80;9.20;;;-2.20;99.90;;;;;;5084833;28;20209;-68
2021/12/22 01:07:46;;;;;;;30.67;9.27;;;-2.20;99.90;;;;;;5084882;28;20192;-69
2021/12/22 01:10:12;;;;;;;41.93;10.43;;;-2.10;99.90;;;;;;5084236;28;20181;-70
2021/12/22 01:12:39;;;;;;;35.43;10.17;;;-2.10;99.90;;;;;;5083749;28;20189;-70
2021/12/22 01:15:06;;;;;;;39.63;10.43;;;-2.10;99.90;;;;;;5083321;28;20655;-69
2021/12/22 01:17:38;;;;;;;37.83;9.60;;;-2.10;99.90;;;;;;5084260;28;20189;-70
2021/12/22 01:20:20;;;;;;;26.17;9.07;;;-2.10;99.90;;;;;;5084496;28;20540;-68
2021/12/22 01:25:14;;;;;;;38.50;9.47;;;-2.10;99.90;;;;;;5083608;28;20569;-70
2021/12/22 01:27:42;;;;;;;26.63;8.60;;;-2.10;99.90;;;;;;5084456;28;20292;-68
2021/12/22 01:30:12;;;;;;;32.27;9.63;;;-2.20;99.90;;;;;;5084219;28;20295;-72
2021/12/22 01:32:38;;;;;;;28.93;9.37;;;-2.10;99.90;;;;;;5084018;28;20204;-70
2021/12/22 01:35:07;;;;;;;35.80;9.20;;;-2.10;99.90;;;;;;5082834;28;20189;-70
2021/12/22 01:37:33;;;;;;;33.57;9.07;;;-2.20;99.90;;;;;;5084107;28;20180;-69
2021/12/22 01:40:01;;;;;;;47.30;10.50;;;-2.20;99.90;;;;;;5083935;28;20253;-70
2021/12/22 01:42:27;;;;;;;34.37;9.37;;;-2.30;99.90;;;;;;5084004;28;20542;-69
2021/12/22 01:50:43;;;;;;;36.73;8.93;;;-2.40;99.90;;;;;;5084285;28;20246;-69
2021/12/22 01:53:20;;;;;;;52.50;11.13;;;-2.30;99.90;;;;;;5083133;28;20196;-69
2021/12/22 01:56:23;;;;;;;41.27;10.00;;;-2.40;99.90;;;;;;5081416;28;20173;-68
2021/12/22 01:58:52;;;;;;;36.70;9.27;;;-2.40;99.90;;;;;;5099291;28;20180;-69
2021/12/22 02:01:18;;;;;;;34.63;10.03;;;-2.40;99.90;;;;;;5083317;28;20180;-71
2021/12/22 02:03:46;;;;;;;35.57;9.93;;;-2.30;99.90;;;;;;5083517;28;20285;-68
2021/12/22 02:06:12;;;;;;;44.37;9.87;;;-2.30;99.90;;;;;;5084132;28;20238;-69
2021/12/22 02:08:39;;;;;;;36.50;10.33;;;-2.40;99.90;;;;;;5084523;28;20687;-70
2021/12/22 02:11:06;;;;;;;37.23;8.97;;;-2.30;99.90;;;;;;5083269;28;20290;-69
2021/12/22 02:13:37;;;;;;;40.40;8.77;;;-2.30;99.90;;;;;;5084049;28;20192;-69
2021/12/22 02:16:09;;;;;;;36.87;8.10;;;-2.40;99.90;;;;;;5084190;28;20204;-68
2021/12/22 02:18:39;;;;;;;30.33;8.30;;;-2.40;99.90;;;;;;5083808;28;20173;-70
2021/12/22 02:21:05;;;;;;;28.33;7.47;;;-2.50;99.90;;;;;;5082864;28;20263;-70
2021/12/22 02:23:32;;;;;;;36.37;7.60;;;-2.50;99.90;;;;;;5083431;28;20196;-69
2021/12/22 02:26:05;;;;;;;41.30;8.17;;;-2.40;99.90;;;;;;5084193;28;20187;-67
2021/12/22 02:28:34;;;;;;;35.47;8.13;;;-2.50;99.90;;;;;;5084117;28;20168;-69
2021/12/22 02:31:01;;;;;;;15.50;5.53;;;-2.60;99.90;;;;;;5083978;28;20192;-70
2021/12/22 02:38:43;;;;;;;19.70;6.00;;;-2.60;99.90;;;;;;5083991;28;20185;-69
2021/12/22 02:41:12;;;;;;;25.83;6.63;;;-2.60;99.90;;;;;;5083392;28;20177;-68
2021/12/22 02:43:46;;;;;;;19.60;6.37;;;-2.80;99.90;;;;;;5083783;28;20227;-69
2021/12/22 02:46:13;;;;;;;24.33;7.23;;;-2.90;99.90;;;;;;5083492;28;20759;-70
2021/12/22 02:48:39;;;;;;;32.03;6.40;;;-2.80;99.90;;;;;;5087999;28;20177;-68
2021/12/22 02:51:05;;;;;;;15.10;5.77;;;-2.80;99.90;;;;;;5086882;28;20664;-70
2021/12/22 02:53:41;;;;;;;16.97;5.53;;;-2.70;99.90;;;;;;5087655;28;20197;-69
2021/12/22 02:58:58;;;;;;;20.53;6.07;;;-2.60;99.90;;;;;;5087640;28;20181;-69
2021/12/22 03:04:02;;;;;;;29.97;6.37;;;-2.70;99.90;;;;;;5087447;28;20225;-71
2021/12/22 03:06:42;;;;;;;19.37;5.70;;;-2.70;99.90;;;;;;5088117;28;20177;-68
2021/12/22 03:09:33;;;;;;;22.47;6.70;;;-2.70;99.90;;;;;;5087769;28;20173;-69
2021/12/22 03:12:01;;;;;;;23.87;6.20;;;-2.70;99.90;;;;;;5087003;28;20180;-68
2021/12/22 03:14:28;;;;;;;30.67;6.83;;;-2.70;99.90;;;;;;5087442;28;20205;-68
2021/12/22 03:16:55;;;;;;;20.30;6.07;;;-2.70;99.90;;;;;;5087311;28;20264;-68
2021/12/22 03:19:34;;;;;;;28.67;6.67;;;-2.70;99.90;;;;;;5087029;28;20184;-70
2021/12/22 03:22:04;;;;;;;16.33;5.57;;;-2.70;99.90;;;;;;5085222;28;20189;-69
2021/12/22 03:24:32;;;;;;;15.40;5.53;;;-2.70;99.90;;;;;;5085781;28;20208;-70
2021/12/22 03:27:03;;;;;;;18.10;5.77;;;-2.70;99.90;;;;;;5087410;28;20260;-70
2021/12/22 03:29:33;;;;;;;21.50;5.77;;;-2.70;99.90;;;;;;5087474;28;20183;-70
2021/12/22 03:31:59;;;;;;;17.10;5.67;;;-2.60;99.90;;;;;;5085151;28;20184;-69
2021/12/22 03:34:25;;;;;;;15.33;5.07;;;-2.60;99.90;;;;;;5086993;28;20201;-70
2021/12/22 03:36:51;;;;;;;20.27;6.30;;;-2.60;99.90;;;;;;5086997;28;20808;-70
2021/12/22 03:39:16;;;;;;;24.90;7.17;;;-2.60;99.90;;;;;;5087139;28;20187;-68
2021/12/22 03:41:44;;;;;;;17.60;5.53;;;-2.60;99.90;;;;;;5086492;28;20181;-70
2021/12/22 03:44:10;;;;;;;18.63;5.50;;;-2.70;99.90;;;;;;5086823;28;21089;-70
2021/12/22 03:46:36;;;;;;;35.73;6.37;;;-2.60;99.90;;;;;;5085741;28;20612;-69
2021/12/22 03:49:03;;;;;;;21.57;5.50;;;-2.60;99.90;;;;;;5086713;28;20209;-69
2021/12/22 03:51:29;;;;;;;22.73;5.20;;;-2.70;99.90;;;;;;5084788;28;20267;-69
2021/12/22 03:53:54;;;;;;;18.30;5.10;;;-2.70;99.90;;;;;;5086568;28;20645;-68
2021/12/22 03:56:21;;;;;;;19.97;5.10;;;-2.80;99.90;;;;;;5087140;28;20271;-70
2021/12/22 03:58:46;;;;;;;11.90;4.90;;;-2.90;99.90;;;;;;5086265;28;20188;-69
2021/12/22 04:01:13;;;;;;;16.93;4.70;;;-2.80;99.90;;;;;;5085985;28;20758;-73
2021/12/22 04:03:41;;;;;;;18.07;5.83;;;-2.90;99.90;;;;;;5086662;28;20224;-69
2021/12/22 04:06:06;;;;;;;25.50;5.37;;;-2.90;99.90;;;;;;5086683;28;20212;-70
2021/12/22 04:08:32;;;;;;;32.03;5.93;;;-2.90;99.90;;;;;;5086468;28;20266;-71
2021/12/22 04:10:59;;;;;;;16.47;5.20;;;-3.00;99.90;;;;;;5085580;28;20314;-71
2021/12/22 04:13:24;;;;;;;17.57;5.57;;;-3.00;99.90;;;;;;5085928;28;20207;-69
2021/12/22 04:15:50;;;;;;;19.07;5.30;;;-2.90;99.90;;;;;;5086412;28;20193;-69
2021/12/22 04:18:19;;;;;;;26.63;6.27;;;-2.90;99.90;;;;;;5086305;28;20191;-71
2021/12/22 04:20:45;;;;;;;32.23;6.43;;;-3.00;99.90;;;;;;5086221;28;20177;-69
2021/12/22 04:23:11;;;;;;;25.13;5.87;;;-3.00;99.90;;;;;;5085731;28;20571;-68
2021/12/22 04:25:37;;;;;;;18.30;5.50;;;-3.00;99.90;;;;;;5086090;28;20294;-69
2021/12/22 04:28:08;;;;;;;31.80;7.47;;;-2.90;99.90;;;;;;5086145;28;20188;-70
2021/12/22 04:30:38;;;;;;;13.40;4.87;;;-2.90;99.90;;;;;;5085995;28;20739;-69
2021/12/22 04:33:04;;;;;;;16.20;5.23;;;-2.90;99.90;;;;;;5085687;28;20212;-71
2021/12/22 04:35:31;;;;;;;27.57;5.40;;;-2.90;99.90;;;;;;5085836;28;20193;-69
2021/12/22 04:37:57;;;;;;;28.03;6.17;;;-3.00;99.90;;;;;;5086134;28;20219;-70
2021/12/22 04:40:23;;;;;;;20.07;5.03;;;-3.00;99.90;;;;;;5086021;28;20192;-68
2021/12/22 04:42:49;;;;;;;17.90;4.83;;;-3.00;99.90;;;;;;5085027;28;20279;-68
2021/12/22 04:45:15;;;;;;;18.93;4.90;;;-3.00;99.90;;;;;;5084464;28;20208;-70
2021/12/22 04:47:42;;;;;;;16.87;5.07;;;-2.90;99.90;;;;;;5086117;28;20189;-68
2021/12/22 04:50:13;;;;;;;23.30;5.33;;;-2.80;99.90;;;;;;5086312;28;20191;-69
2021/12/22 04:52:57;;;;;;;17.23;5.53;;;-2.90;99.90;;;;;;5085317;28;20204;-67
2021/12/22 04:55:25;;;;;;;23.07;4.50;;;-3.00;99.90;;;;;;5085916;28;20658;-68
2021/12/22 04:57:52;;;;;;;13.47;4.53;;;-2.90;99.90;;;;;;5085808;28;20180;-70
2021/12/22 05:00:19;;;;;;;26.63;5.57;;;-3.00;99.90;;;;;;5085482;28;20267;-69
2021/12/22 05:02:45;;;;;;;27.63;5.27;;;-3.10;99.90;;;;;;5084106;28;20201;-70
2021/12/22 05:05:11;;;;;;;16.57;6.10;;;-3.10;99.90;;;;;;5084627;28;20577;-69
2021/12/22 05:07:38;;;;;;;24.23;4.90;;;-3.10;99.90;;;;;;5085205;28;20539;-69
2021/12/22 05:10:05;;;;;;;20.67;5.23;;;-3.10;99.90;;;;;;5084688;28;20185;-69
2021/12/22 05:12:31;;;;;;;14.50;4.63;;;-3.10;99.90;;;;;;5084129;28;20206;-70
2021/12/22 05:14:56;;;;;;;21.70;5.27;;;-3.20;99.90;;;;;;5085506;28;20524;-69
2021/12/22 05:17:37;;;;;;;23.73;5.50;;;-3.10;99.90;;;;;;5085463;28;20549;-71
2021/12/22 05:20:04;;;;;;;24.93;6.20;;;-3.10;99.90;;;;;;5085089;28;20552;-69
2021/12/22 05:22:30;;;;;;;17.10;5.50;;;-3.20;99.90;;;;;;5082795;28;20236;-68
2021/12/22 05:24:58;;;;;;;16.10;5.03;;;-3.10;99.90;;;;;;5085123;28;20392;-70
2021/12/22 05:27:23;;;;;;;15.93;5.33;;;-3.20;99.90;;;;;;5083700;28;20193;-68
2021/12/22 05:29:49;;;;;;;18.37;5.93;;;-3.20;99.90;;;;;;5083321;28;20529;-72
2021/12/22 05:32:14;;;;;;;35.07;5.90;;;-3.10;99.90;;;;;;5083657;28;20188;-69
2021/12/22 05:34:40;;;;;;;13.03;5.33;;;-3.10;99.90;;;;;;5083826;28;20447;-70
2021/12/22 05:37:06;;;;;;;18.33;5.03;;;-3.20;99.90;;;;;;5085090;28;20221;-69
2021/12/22 05:39:31;;;;;;;20.57;6.00;;;-3.20;99.90;;;;;;5083552;28;20196;-72
2021/12/22 05:41:58;;;;;;;17.37;5.40;;;-3.20;99.90;;;;;;5084569;28;20212;-70
2021/12/22 05:44:24;;;;;;;22.30;5.43;;;-3.20;99.90;;;;;;5083372;28;20205;-68
2021/12/22 05:46:49;;;;;;;18.90;5.00;;;-3.30;99.90;;;;;;5082713;28;20180;-72
2021/12/22 05:49:15;;;;;;;26.43;6.27;;;-3.20;99.90;;;;;;5082278;28;20188;-70
2021/12/22 05:51:41;;;;;;;21.23;5.47;;;-3.20;99.90;;;;;;5081367;28;20910;-68
2021/12/22 05:54:06;;;;;;;15.50;4.87;;;-3.10;99.90;;;;;;5083217;28;20262;-69
2021/12/22 05:56:32;;;;;;;16.70;4.83;;;-3.00;99.90;;;;;;5082412;28;20659;-75
2021/12/22 05:58:58;;;;;;;19.90;5.83;;;-2.90;99.90;;;;;;5082714;28;20287;-68
2021/12/22 06:01:23;;;;;;;9.10;4.77;;;-3.00;99.90;;;;;;5082697;28;20431;-69
2021/12/22 06:03:49;;;;;;;18.13;5.00;;;-3.10;99.90;;;;;;5083523;28;20227;-68
2021/12/22 06:06:15;;;;;;;26.10;5.33;;;-3.10;99.90;;;;;;5084612;28;20186;-69
2021/12/22 06:08:40;;;;;;;17.13;4.80;;;-3.30;99.90;;;;;;5084366;28;20644;-69
2021/12/22 06:11:06;;;;;;;10.73;5.43;;;-3.30;99.90;;;;;;5083853;28;20225;-73
2021/12/22 06:13:32;;;;;;;13.63;5.53;;;-3.40;99.90;;;;;;5083752;28;20248;-69
2021/12/22 06:15:57;;;;;;;11.97;5.30;;;-3.30;99.90;;;;;;5082813;28;20209;-69
2021/12/22 06:18:23;;;;;;;12.03;5.27;;;-3.30;99.90;;;;;;5084307;28;20189;-69
2021/12/22 06:20:49;;;;;;;11.00;4.57;;;-3.30;99.90;;;;;;5085961;28;20738;-70
2021/12/22 06:23:14;;;;;;;12.83;4.83;;;-3.40;99.90;;;;;;5087593;28;20562;-68
2021/12/22 06:25:40;;;;;;;15.43;4.90;;;-3.40;99.90;;;;;;5088802;28;20311;-70
2021/12/22 06:28:06;;;;;;;14.10;5.40;;;-3.40;99.90;;;;;;5086911;28;20185;-69
2021/12/22 06:30:33;;;;;;;13.20;4.77;;;-3.30;99.90;;;;;;5088181;28;20189;-68
2021/12/22 06:32:59;;;;;;;11.47;4.83;;;-3.40;99.90;;;;;;5087377;28;20204;-70
2021/12/22 06:35:24;;;;;;;16.47;5.33;;;-3.40;99.90;;;;;;5088381;28;20554;-70
2021/12/22 06:37:51;;;;;;;8.60;4.57;;;-3.30;99.90;;;;;;5088364;28;20560;-68
2021/12/22 06:40:19;;;;;;;17.37;4.87;;;-3.30;99.90;;;;;;5088116;28;20699;-71
2021/12/22 06:42:44;;;;;;;22.73;5.43;;;-3.30;99.90;;;;;;5087355;28;20212;-68
2021/12/22 06:45:12;;;;;;;23.47;5.17;;;-3.30;99.90;;;;;;5087865;28;20211;-69
2021/12/22 06:47:38;;;;;;;13.67;4.90;;;-3.40;99.90;;;;;;5088040;28;20173;-70
2021/12/22 06:50:05;;;;;;;13.43;4.60;;;-3.40;99.90;;;;;;5087877;28;20193;-69
2021/12/22 06:52:32;;;;;;;11.67;4.90;;;-3.50;99.90;;;;;;5087478;28;20208;-72
2021/12/22 06:54:57;;;;;;;21.83;5.93;;;-3.50;99.90;;;;;;5087935;28;20647;-71
2021/12/22 06:57:23;;;;;;;12.37;5.30;;;-3.30;99.90;;;;;;5086949;28;20227;-68
2021/12/22 06:59:49;;;;;;;11.47;5.10;;;-3.40;99.90;;;;;;5087685;28;20189;-72
2021/12/22 07:02:16;;;;;;;16.33;5.17;;;-3.40;99.90;;;;;;5087182;28;20242;-68
2021/12/22 07:04:41;;;;;;;15.17;5.43;;;-3.40;99.90;;;;;;5087349;28;20211;-69
2021/12/22 07:07:07;;;;;;;9.93;4.70;;;-3.40;99.90;;;;;;5087676;28;20184;-69
2021/12/22 07:09:32;;;;;;;12.50;4.70;;;-3.40;99.90;;;;;;5086797;28;20185;-69
2021/12/22 07:11:58;;;;;;;16.33;4.83;;;-3.50;99.90;;;;;;5087377;28;20207;-70
2021/12/22 07:14:24;;;;;;;9.80;4.10;;;-3.40;99.90;;;;;;5087435;28;20242;-69
2021/12/22 07:16:50;;;;;;;12.77;4.73;;;-3.40;99.90;;;;;;5087557;28;20196;-70
2021/12/22 07:19:16;;;;;;;19.00;4.83;;;-3.50;99.90;;;;;;5087197;28;20343;-69
2021/12/22 07:21:41;;;;;;;13.57;4.73;;;-3.50;99.90;;;;;;5086552;28;20185;-70
2021/12/22 07:24:07;;;;;;;15.90;5.83;;;-3.50;99.90;;;;;;5086493;28;20316;-68
2021/12/22 07:26:33;;;;;;;21.67;5.23;;;-3.50;99.90;;;;;;5087030;28;20189;-70
2021/12/22 07:28:59;;;;;;;9.37;4.63;;;-3.40;99.90;;;;;;5086238;28;20184;-69
2021/12/22 07:31:25;;;;;;;22.50;5.87;;;-3.50;99.90;;;;;;5085971;28;20187;-68
2021/12/22 07:34:01;;;;;;;17.50;5.17;;;-3.50;99.90;;;;;;5086755;28;20205;-70
2021/12/22 07:36:26;;;;;;;15.90;5.60;;;-3.60;99.90;;;;;;5086242;28;20227;-69
2021/12/22 07:39:01;;;;;;;9.17;4.23;;;-3.60;99.90;;;;;;5087067;28;20177;-68
2021/12/22 07:41:28;;;;;;;14.50;4.23;;;-3.60;99.90;;;;;;5082863;28;20728;-68
2021/12/22 07:43:54;;;;;;;12.57;5.03;;;-3.70;99.90;;;;;;5081880;28;20315;-68
2021/12/22 07:46:20;;;;;;;30.97;5.57;;;-3.70;99.90;;;;;;5082567;28;20225;-70
2021/12/22 07:48:46;;;;;;;11.13;4.07;;;-3.70;99.90;;;;;;5084291;28;20227;-69
2021/12/22 07:51:12;;;;;;;28.40;5.13;;;-3.70;99.90;;;;;;5083461;28;20196;-70
2021/12/22 07:53:37;;;;;;;11.70;5.00;;;-3.80;99.90;;;;;;5082239;28;20205;-69
2021/12/22 07:56:03;;;;;;;29.20;6.00;;;-3.90;99.90;;;;;;5083791;28;20259;-69
2021/12/22 07:58:29;;;;;;;21.60;4.90;;;-3.90;99.90;;;;;;5083960;28;20196;-69
2021/12/22 08:00:56;;;;;;;14.13;4.33;;;-3.90;99.90;;;;;;5081619;28;20189;-70
2021/12/22 08:03:22;;;;;;;21.13;4.80;;;-3.80;99.90;;;;;;5083662;28;20223;-69
2021/12/22 08:05:48;;;;;;;10.13;3.47;;;-3.90;99.90;;;;;;5083474;28;20215;-69
2021/12/22 08:08:16;;;;;;;11.63;3.60;;;-3.80;99.90;;;;;;5083892;28;20636;-69
2021/12/22 08:10:43;;;;;;;19.43;4.50;;;-3.80;99.90;;;;;;5083918;28;20181;-69
2021/12/22 08:13:08;;;;;;;28.37;4.80;;;-3.80;99.90;;;;;;5083064;28;20227;-69
2021/12/22 08:15:34;;;;;;;21.00;4.40;;;-3.90;99.90;;;;;;5083456;28;20193;-70
2021/12/22 08:18:00;;;;;;;12.13;4.83;;;-3.90;99.90;;;;;;5083402;28;20227;-70
2021/12/22 08:20:26;;;;;;;27.50;5.20;;;-3.90;99.90;;;;;;5083361;28;20231;-70
2021/12/22 08:22:52;;;;;;;19.30;5.27;;;-3.90;99.90;;;;;;5083292;28;20201;-69
2021/12/22 08:25:18;;;;;;;17.93;5.47;;;-3.90;99.90;;;;;;5083359;28;20284;-70
2021/12/22 08:27:43;;;;;;;20.97;5.77;;;-3.80;99.90;;;;;;5082642;28;20196;-71
2021/12/22 08:30:10;;;;;;;30.10;6.30;;;-3.80;99.90;;;;;;5083421;28;20281;-71
2021/12/22 08:32:36;;;;;;;21.57;5.00;;;-3.80;99.90;;;;;;5081923;28;20213;-70
2021/12/22 08:35:04;;;;;;;20.77;4.67;;;-3.70;99.90;;;;;;5083845;28;20242;-69
2021/12/22 08:40:17;;;;;;;11.03;4.70;;;-3.50;99.90;;;;;;5083243;28;20809;-71
2021/12/22 08:42:44;;;;;;;34.67;6.17;;;-3.60;99.90;;;;;;5082417;28;20208;-69
2021/12/22 08:45:10;;;;;;;26.53;5.40;;;-3.50;99.90;;;;;;5080270;28;20682;-70
2021/12/22 08:47:35;;;;;;;15.97;5.37;;;-3.50;99.90;;;;;;5082419;28;20192;-70
2021/12/22 08:50:01;;;;;;;13.70;5.17;;;-3.50;99.90;;;;;;5082888;28;20189;-69
2021/12/22 08:52:27;;;;;;;17.37;5.57;;;-3.50;99.90;;;;;;5082049;28;20302;-69
2021/12/22 08:54:53;;;;;;;13.53;5.30;;;-3.40;99.90;;;;;;5082953;28;20189;-68
2021/12/22 08:57:18;;;;;;;11.80;4.33;;;-3.30;99.90;;;;;;5082505;28;20192;-69
2021/12/22 08:59:44;;;;;;;15.03;5.00;;;-3.30;99.90;;;;;;5082757;28;20225;-69
2021/12/22 09:02:10;;;;;;;17.37;4.90;;;-3.30;99.90;;;;;;5079336;28;20189;-70
2021/12/22 09:04:36;;;;;;;40.43;5.97;;;-3.20;99.90;;;;;;5079313;28;20224;-70
2021/12/22 09:07:02;;;;;;;14.93;4.93;;;-3.30;99.90;;;;;;5081770;28;20239;-69
2021/12/22 09:09:29;;;;;;;28.37;7.53;;;-3.30;99.90;;;;;;5079483;28;20193;-71
2021/12/22 09:11:54;;;;;;;12.93;4.97;;;-3.30;99.90;;;;;;5080489;28;20339;-71
2021/12/22 09:14:21;;;;;;;12.80;4.60;;;-3.40;99.90;;;;;;5080704;28;20252;-70
2021/12/22 09:16:48;;;;;;;21.83;5.70;;;-3.30;99.90;;;;;;5081041;28;20189;-72
2021/12/22 09:19:14;;;;;;;20.10;4.83;;;-3.30;99.90;;;;;;5080944;28;20299;-69
2021/12/22 09:21:40;;;;;;;7.27;3.47;;;-3.30;99.90;;;;;;5079406;28;20195;-70
2021/12/22 09:24:06;;;;;;;14.50;4.10;;;-3.50;99.90;;;;;;5080694;28;20912;-69
2021/12/22 09:26:32;;;;;;;21.70;5.10;;;-3.40;99.90;;;;;;5082553;28;20227;-68
2021/12/22 09:28:58;;;;;;;8.77;4.97;;;-3.40;99.90;;;;;;5082153;28;20705;-69
2021/12/22 09:31:24;;;;;;;17.93;4.77;;;-3.30;99.90;;;;;;5081859;28;20430;-70
2021/12/22 09:33:51;;;;;;;9.30;4.57;;;-3.30;99.90;;;;;;5082066;28;20211;-68
2021/12/22 09:36:17;;;;;;;12.90;4.27;;;-3.30;99.90;;;;;;5080586;28;20458;-69
2021/12/22 09:38:43;;;;;;;10.13;4.73;;;-3.20;99.90;;;;;;5082102;28;20185;-68
2021/12/22 09:41:10;;;;;;;11.97;4.27;;;-3.10;99.90;;;;;;5080641;28;20189;-70
2021/12/22 09:43:35;;;;;;;12.30;4.70;;;-3.00;99.90;;;;;;5081635;28;20634;-69
2021/12/22 09:46:07;;;;;;;11.17;4.00;;;-3.00;99.90;;;;;;5081532;28;20205;-70
2021/12/22 09:48:49;;;;;;;13.93;4.67;;;-3.00;99.90;;;;;;5082022;28;20538;-68
2021/12/22 09:53:51;;;;;;;11.87;4.13;;;-2.90;99.90;;;;;;5081407;28;20225;-69
2021/12/22 09:56:23;;;;;;;15.37;4.30;;;-2.70;99.90;;;;;;5081754;28;20183;-68
2021/12/22 09:58:49;;;;;;;8.60;3.77;;;-2.50;99.90;;;;;;5081629;28;20212;-69
2021/12/22 10:01:21;;;;;;;8.27;3.97;;;-2.70;99.90;;;;;;5078946;28;20180;-72
2021/12/22 10:03:46;;;;;;;14.63;4.60;;;-2.70;99.90;;;;;;5081015;28;20266;-70
2021/12/22 10:06:13;;;;;;;15.00;4.47;;;-2.60;99.90;;;;;;5081568;28;20737;-68
2021/12/22 10:08:53;;;;;;;13.60;4.20;;;-2.70;99.90;;;;;;5081680;28;20210;-70
2021/12/22 10:11:19;;;;;;;8.80;3.80;;;-2.60;99.90;;;;;;5080509;28;20192;-70
2021/12/22 10:13:45;;;;;;;9.97;4.33;;;-2.50;99.90;;;;;;5081998;28;20706;-69
2021/12/22 10:16:29;;;;;;;11.53;3.73;;;-2.50;99.90;;;;;;5081104;28;20185;-68
2021/12/22 10:19:07;;;;;;;11.57;3.97;;;-2.50;99.90;;;;;;5081091;28;20185;-70
2021/12/22 10:21:34;;;;;;;7.37;4.07;;;-2.60;99.90;;;;;;5081404;28;20185;-70
2021/12/22 10:24:02;;;;;;;8.57;4.70;;;-2.60;99.90;;;;;;5081069;28;20236;-69
2021/12/22 10:26:28;;;;;;;9.57;5.07;;;-2.50;99.90;;;;;;5082525;28;20193;-68
2021/12/22 10:28:57;;;;;;;8.23;5.23;;;-2.40;99.90;;;;;;5083270;28;20272;-70
2021/12/22 10:31:35;;;;;;;9.07;5.33;;;-2.40;99.90;;;;;;5081899;28;20181;-69
2021/12/22 10:34:05;;;;;;;10.00;4.73;;;-2.30;99.90;;;;;;5082566;28;20984;-69
2021/12/22 10:36:52;;;;;;;13.27;5.07;;;-2.20;99.90;;;;;;5084032;28;20192;-69
2021/12/22 10:39:22;;;;;;;9.73;5.23;;;-2.20;99.90;;;;;;5083390;28;20829;-72
2021/12/22 10:41:49;;;;;;;18.40;5.83;;;-2.20;99.90;;;;;;5083331;28;20574;-69
2021/12/22 10:44:15;;;;;;;11.97;4.83;;;-2.20;99.90;;;;;;5082217;28;20216;-68
2021/12/22 10:46:41;;;;;;;15.63;6.37;;;-2.30;99.90;;;;;;5083590;28;20192;-73
2021/12/22 10:49:32;;;;;;;15.90;6.30;;;-2.40;99.90;;;;;;5083330;28;20181;-68
2021/12/22 10:52:00;;;;;;;12.67;6.17;;;-2.20;99.90;;;;;;5080724;28;20279;-69
2021/12/22 10:54:38;;;;;;;14.43;5.83;;;-2.20;99.90;;;;;;5083343;28;20307;-69
2021/12/22 10:57:08;;;;;;;10.83;5.73;;;-2.30;99.90;;;;;;5083609;28;20204;-69
2021/12/22 10:59:45;;;;;;;13.40;6.80;;;-2.20;99.90;;;;;;5083304;28;20693;-69
2021/12/22 11:02:19;;;;;;;13.57;6.10;;;-2.10;99.90;;;;;;5082730;28;20211;-69
2021/12/22 11:04:45;;;;;;;13.83;7.30;;;-2.20;99.90;;;;;;5083465;28;20578;-68
2021/12/22 11:07:21;;;;;;;10.30;6.37;;;-2.30;99.90;;;;;;5084322;28;20267;-68
2021/12/22 11:09:47;;;;;;;14.87;6.77;;;-2.30;99.90;;;;;;5086037;28;20184;-69
2021/12/22 11:12:16;;;;;;;14.33;7.13;;;-2.30;99.90;;;;;;5086473;28;20189;-70
2021/12/22 11:14:47;;;;;;;14.93;8.00;;;-2.30;99.90;;;;;;5086960;28;20945;-69
2021/12/22 11:17:19;;;;;;;28.87;7.20;;;-2.20;99.90;;;;;;5086796;28;20318;-70
2021/12/22 11:19:56;;;;;;;9.93;4.97;;;-2.10;99.90;;;;;;5084282;28;20185;-72
2021/12/22 11:22:37;;;;;;;11.60;4.97;;;-2.30;99.90;;;;;;5083218;28;20185;-71
2021/12/22 11:25:05;;;;;;;10.83;5.30;;;-2.40;99.90;;;;;;5084234;28;20690;-71
2021/12/22 11:27:31;;;;;;;10.00;5.23;;;-2.40;99.90;;;;;;5084957;28;21074;-70
2021/12/22 11:29:58;;;;;;;8.93;4.70;;;-2.40;99.90;;;;;;5084749;28;20653;-69
2021/12/22 11:32:29;;;;;;;7.87;4.60;;;-2.40;99.90;;;;;;5083334;28;20185;-70
2021/12/22 11:34:57;;;;;;;12.03;4.83;;;-2.30;99.90;;;;;;5084353;28;20177;-69
2021/12/22 11:37:25;;;;;;;7.83;4.40;;;-2.20;99.90;;;;;;5084191;28;20362;-68
2021/12/22 11:39:51;;;;;;;7.87;4.20;;;-2.00;99.90;;;;;;5082460;28;20190;-70
2021/12/22 11:42:19;;;;;;;6.20;3.87;;;-2.00;99.90;;;;;;5084069;28;20185;-69
2021/12/22 11:44:51;;;;;;;51.67;31.50;;;-2.20;99.90;;;;;;5084374;28;20193;-69
2021/12/22 11:47:16;;;;;;;24.07;13.63;;;-2.00;99.90;;;;;;5082912;28;20211;-69
2021/12/22 11:49:57;;;;;;;10.53;6.57;;;-2.10;99.90;;;;;;5083938;28;20699;-69
2021/12/22 11:52:51;;;;;;;10.37;5.87;;;-2.00;99.90;;;;;;5083123;28;20245;-70
2021/12/22 11:55:23;;;;;;;12.40;6.07;;;-2.10;99.90;;;;;;5082803;28;20188;-70
2021/12/22 11:57:51;;;;;;;23.93;10.87;;;-1.90;99.90;;;;;;5083784;28;20192;-69
2021/12/22 12:00:20;;;;;;;25.50;12.37;;;-1.80;99.90;;;;;;5084153;28;20189;-69
2021/12/22 12:02:46;;;;;;;24.20;14.40;;;-1.70;99.90;;;;;;5083316;28;20209;-68
2021/12/22 12:05:30;;;;;;;9.50;5.40;;;-1.70;99.90;;;;;;5083503;28;20251;-70
2021/12/22 12:08:14;;;;;;;7.13;4.37;;;-1.70;99.90;;;;;;5083511;28;20181;-70
2021/12/22 12:10:49;;;;;;;7.93;4.80;;;-1.70;99.90;;;;;;5083411;28;20185;-69
2021/12/22 12:13:49;;;;;;;7.23;4.40;;;-1.80;99.90;;;;;;5082778;28;20729;-68
2021/12/22 12:22:16;;;;;;;21.90;15.10;;;-1.80;99.90;;;;;;5083270;28;20204;-68
2021/12/22 12:24:48;;;;;;;11.43;6.20;;;-1.80;99.90;;;;;;5061797;28;20629;-73
2021/12/22 12:27:44;;;;;;;12.13;5.30;;;-1.70;99.90;;;;;;5084016;28;20194;-69
2021/12/22 12:30:20;;;;;;;14.90;5.67;;;-1.80;99.90;;;;;;5083688;28;20307;-70
2021/12/22 12:32:46;;;;;;;11.30;6.17;;;-2.00;99.90;;;;;;5081620;28;20193;-68
2021/12/22 12:35:17;;;;;;;12.13;7.13;;;-2.10;99.90;;;;;;5083330;28;20689;-69
2021/12/22 12:38:03;;;;;;;14.13;5.40;;;-2.10;99.90;;;;;;5084048;28;20181;-69
2021/12/22 12:40:57;;;;;;;10.13;5.97;;;-2.20;99.90;;;;;;5081623;28;20792;-69
2021/12/22 12:43:44;;;;;;;12.63;6.70;;;-2.20;99.90;;;;;;5082787;28;20208;-69
2021/12/22 12:46:19;;;;;;;12.00;6.77;;;-2.10;99.90;;;;;;5083505;28;20220;-70
2021/12/22 12:49:08;;;;;;;14.07;6.67;;;-2.00;99.90;;;;;;5083230;28;20215;-69
2021/12/22 12:51:41;;;;;;;12.87;6.87;;;-2.10;99.90;;;;;;5073827;28;20193;-72
2021/12/22 12:54:18;;;;;;;11.80;6.37;;;-2.10;99.90;;;;;;5083068;28;20200;-68
2021/12/22 12:56:54;;;;;;;10.27;6.20;;;-2.00;99.90;;;;;;5082388;28;20271;-71
2021/12/22 12:59:26;;;;;;;22.10;7.53;;;-1.90;99.90;;;;;;5083251;28;20270;-70
2021/12/22 13:01:52;;;;;;;14.60;6.23;;;-1.80;99.90;;;;;;5082596;28;20192;-71
2021/12/22 13:04:27;;;;;;;17.77;6.27;;;-2.00;99.90;;;;;;5082744;28;20220;-71
2021/12/22 13:07:01;;;;;;;16.17;6.17;;;-2.00;99.90;;;;;;5083485;28;20184;-69
2021/12/22 13:09:32;;;;;;;20.13;6.70;;;-2.20;99.90;;;;;;5080025;28;20264;-69
2021/12/22 13:12:09;;;;;;;15.00;6.20;;;-2.20;99.90;;;;;;5081774;28;20294;-70
2021/12/22 13:17:28;;;;;;;37.57;7.27;;;-2.00;99.90;;;;;;5082106;28;20207;-71
2021/12/22 13:19:56;;;;;;;22.27;5.83;;;-2.10;99.90;;;;;;5081976;28;20185;-68